| |
Missouri Department of Transportation

Social Media Facebook Twitter Flickr Instagram YouTube RSS

Current AWOS Information

 
AWOS Home - General Info for all Airports
Current AWOS for all Airports - Current METAR for all Airports
Glossary - Disclaimer - Other Links


MARSHALL--MARSHALL MEMORIAL MUNICIPAL--KMHL
 
Recent AWOS History
 
03/28/15     04:22 AM CDT      09:22 GMT
Air Temperature 37°F (3°C ) 1st Cloud Layer Scattered at 900 feet
Dew Point 31°F (-1°C) 2nd Cloud Layer Broken at 1,300 feet
Barometric Pressure 30.16 in Hg. 3rd Cloud Layer Overcast at 2,600 feet
Wind Speed 3 mph (3 knots) Density Altitude  
Peak Wind Gusts   Variable Wind Directions  
Wind Direction Quadrant(160°) Variable Visibility  
Visibility 3 statute miles  

Thunderstorm and Precipitation Identification:  Light Snow
Thunderstorm Remarks: 

Current METAR Record: METAR KMHL 280924Z AUTO 16003KT 3SM -SN BKN011 BKN018 OVC026 03/M00 A3016 RMK AO2

 

 

 

About Us
How Do I...
Contact Us
Missouri Department of Transportation
Central Office
105 W. Capitol Avenue
Jefferson City, MO 65102
1-888-ASK-MODOT (275-6636)
1-866-831-6277 (Motor Carrier Services)
Drivers License Offices
horz_bar
| | |
Missouri State Government
© 2013 Missouri Department of Transportation. All Rights Reserved.   Privacy Policy.
 
 
 
 
RSS FeedYoutubeBlogFlickrTwitter Facebook